Time;durP1;ratioP1;P1;durP2;ratioP2;P2;SDS_P1;SDS_P2;PMS_P1;PMS_P2;Temp;Humidity;BMP_temperature;BMP_pressure;BME280_temperature;BME280_humidity;BME280_pressure;Samples;Min_cycle;Max_cycle;Signal;HPM_P1;HPM_P2
2021/04/22 00:01:24;;;;;;;3.88;1.30;;;;;;;;;;5019204;28;20041;-72
2021/04/22 00:03:58;;;;;;;10.85;1.95;;;;;;;;;;5026812;28;21263;-72
2021/04/22 00:06:25;;;;;;;11.10;1.55;;;;;;;;;;5012542;28;20022;-73
2021/04/22 00:08:56;;;;;;;10.80;1.88;;;;;;;;;;4998087;28;20113;-72
2021/04/22 00:11:24;;;;;;;8.52;1.70;;;;;;;;;;5022076;28;20042;-72
2021/04/22 00:13:51;;;;;;;3.20;1.35;;;;;;;;;;5019515;28;20120;-72
2021/04/22 00:16:17;;;;;;;9.43;1.98;;;;;;;;;;5020749;28;20052;-72
2021/04/22 00:18:43;;;;;;;8.75;2.30;;;;;;;;;;5017231;28;20644;-72
2021/04/22 00:21:09;;;;;;;2.17;1.15;;;;;;;;;;5021565;28;20025;-72
2021/04/22 00:23:35;;;;;;;6.50;1.80;;;;;;;;;;5018228;28;20072;-72
2021/04/22 00:26:01;;;;;;;5.57;1.70;;;;;;;;;;5022925;28;20179;-72
2021/04/22 00:28:28;;;;;;;10.68;1.85;;;;;;;;;;5026467;28;20091;-72
2021/04/22 00:30:54;;;;;;;7.68;1.27;;;;;;;;;;5020711;28;20061;-72
2021/04/22 00:33:21;;;;;;;7.07;1.50;;;;;;;;;;5020084;28;20092;-72
2021/04/22 00:35:47;;;;;;;2.05;1.58;;;;;;;;;;5025948;28;20044;-72
2021/04/22 00:38:14;;;;;;;8.02;1.67;;;;;;;;;;5026400;28;20017;-72
2021/04/22 00:40:40;;;;;;;6.18;1.35;;;;;;;;;;5014071;28;20044;-72
2021/04/22 00:43:07;;;;;;;3.45;1.90;;;;;;;;;;5022697;28;20033;-72
2021/04/22 00:45:33;;;;;;;4.30;1.88;;;;;;;;;;5021144;28;20032;-72
2021/04/22 00:48:00;;;;;;;10.43;2.10;;;;;;;;;;5024241;28;20629;-72
2021/04/22 00:50:30;;;;;;;10.15;2.15;;;;;;;;;;5026792;28;20132;-72
2021/04/22 00:52:57;;;;;;;7.80;1.77;;;;;;;;;;5024758;28;20034;-72
2021/04/22 00:55:23;;;;;;;5.03;1.60;;;;;;;;;;5016728;28;20284;-72
2021/04/22 00:57:49;;;;;;;5.72;1.58;;;;;;;;;;5020046;28;20032;-72
2021/04/22 01:00:18;;;;;;;8.30;1.85;;;;;;;;;;5023440;28;20033;-72
2021/04/22 01:02:44;;;;;;;4.72;1.60;;;;;;;;;;5017986;28;20033;-72
2021/04/22 01:05:12;;;;;;;7.03;1.80;;;;;;;;;;5019774;28;20116;-72
2021/04/22 01:07:41;;;;;;;4.70;2.10;;;;;;;;;;5022083;28;20025;-73
2021/04/22 01:10:07;;;;;;;5.22;1.45;;;;;;;;;;5025462;28;20484;-72
2021/04/22 01:12:33;;;;;;;5.28;1.85;;;;;;;;;;5020078;28;20112;-72
2021/04/22 01:14:59;;;;;;;10.32;1.60;;;;;;;;;;5024091;28;20160;-72
2021/04/22 01:17:25;;;;;;;4.07;1.73;;;;;;;;;;5022829;28;20167;-72
2021/04/22 01:19:51;;;;;;;7.50;1.73;;;;;;;;;;5023560;28;20483;-72
2021/04/22 01:22:17;;;;;;;8.15;2.38;;;;;;;;;;5024092;28;20055;-72
2021/04/22 01:24:43;;;;;;;11.02;1.92;;;;;;;;;;5013659;28;20087;-71
2021/04/22 01:27:11;;;;;;;10.65;2.35;;;;;;;;;;5015956;28;20025;-72
2021/04/22 01:29:37;;;;;;;6.97;1.83;;;;;;;;;;5023986;28;20384;-72
2021/04/22 01:32:04;;;;;;;5.80;1.90;;;;;;;;;;5014628;28;20025;-72
2021/04/22 01:34:30;;;;;;;9.02;2.22;;;;;;;;;;5022853;28;20034;-72
2021/04/22 01:36:56;;;;;;;13.25;2.75;;;;;;;;;;5017725;28;20038;-72
2021/04/22 01:39:21;;;;;;;5.30;1.67;;;;;;;;;;5019912;28;20420;-72
2021/04/22 01:41:47;;;;;;;5.93;2.22;;;;;;;;;;5019865;28;20037;-72
2021/04/22 01:44:13;;;;;;;14.50;1.90;;;;;;;;;;5019058;28;20038;-72
2021/04/22 01:46:39;;;;;;;7.65;2.38;;;;;;;;;;5014142;28;20057;-72
2021/04/22 01:49:05;;;;;;;15.43;2.28;;;;;;;;;;5011238;28;20030;-73
2021/04/22 01:51:31;;;;;;;8.90;1.92;;;;;;;;;;5011515;28;20049;-72
2021/04/22 01:53:57;;;;;;;10.05;2.35;;;;;;;;;;5019231;28;20072;-72
2021/04/22 01:56:23;;;;;;;6.15;1.80;;;;;;;;;;5019388;28;20029;-71
2021/04/22 01:58:50;;;;;;;2.55;1.30;;;;;;;;;;5023163;28;20524;-71
2021/04/22 02:01:16;;;;;;;10.00;2.45;;;;;;;;;;5023087;28;20033;-71
2021/04/22 02:03:41;;;;;;;11.85;2.10;;;;;;;;;;5022184;28;20037;-71
2021/04/22 02:06:08;;;;;;;6.38;1.83;;;;;;;;;;5016934;28;20018;-71
2021/04/22 02:08:35;;;;;;;8.02;2.88;;;;;;;;;;5020790;28;20571;-71
2021/04/22 02:11:02;;;;;;;5.95;2.15;;;;;;;;;;5022388;28;20025;-71
2021/04/22 02:13:28;;;;;;;6.75;1.50;;;;;;;;;;5015053;28;20030;-71
2021/04/22 02:15:55;;;;;;;7.15;2.28;;;;;;;;;;5023156;28;20041;-71
2021/04/22 02:18:20;;;;;;;9.77;2.08;;;;;;;;;;5017320;28;20045;-71
2021/04/22 02:20:47;;;;;;;7.15;1.80;;;;;;;;;;5022010;28;20030;-72
2021/04/22 02:23:16;;;;;;;9.98;2.00;;;;;;;;;;5024131;28;20030;-71
2021/04/22 02:25:41;;;;;;;7.53;2.10;;;11.50;54.00;;;;;;5016007;28;20129;-71
2021/04/22 02:28:07;;;;;;;5.07;1.63;;;7.60;66.80;;;;;;5021396;28;20038;-71
2021/04/22 02:30:36;;;;;;;9.25;2.30;;;7.30;66.80;;;;;;5021097;28;20022;-71
2021/04/22 02:33:05;;;;;;;8.52;1.98;;;7.30;66.50;;;;;;5021349;28;20399;-71
2021/04/22 02:35:33;;;;;;;10.68;2.33;;;7.20;66.90;;;;;;5013019;28;20067;-71
2021/04/22 02:37:59;;;;;;;15.77;2.40;;;7.20;67.20;;;;;;5019501;28;20646;-71
2021/04/22 02:40:27;;;;;;;12.60;2.22;;;7.20;67.10;;;;;;5025091;28;20116;-71
2021/04/22 02:42:55;;;;;;;10.65;1.90;;;7.20;66.80;;;;;;5025525;28;20088;-71
2021/04/22 02:45:25;;;;;;;9.40;2.03;;;7.20;67.10;;;;;;5015972;28;20041;-71
2021/04/22 02:47:50;;;;;;;16.27;2.25;;;7.10;67.60;;;;;;5029198;28;20022;-71
2021/04/22 02:50:19;;;;;;;11.30;1.67;;;7.20;67.80;;;;;;5025152;28;20040;-71
2021/04/22 02:52:45;;;;;;;3.58;1.70;;;7.10;67.80;;;;;;5028149;28;20152;-71
2021/04/22 02:55:11;;;;;;;4.97;2.28;;;7.10;67.70;;;;;;5020222;28;20018;-71
2021/04/22 02:57:37;;;;;;;6.47;2.42;;;7.10;67.80;;;;;;5028315;28;20514;-71
2021/04/22 03:00:10;;;;;;;4.38;1.70;;;7.20;67.70;;;;;;5025889;28;20021;-71
2021/04/22 03:02:35;;;;;;;6.57;2.05;;;7.10;67.60;;;;;;5017792;28;20112;-71
2021/04/22 03:05:01;;;;;;;10.15;1.67;;;7.10;67.60;;;;;;5024693;28;20116;-71
2021/04/22 03:07:27;;;;;;;7.55;1.95;;;7.10;68.10;;;;;;5017009;28;20026;-70
2021/04/22 03:09:52;;;;;;;8.23;2.47;;;7.10;68.00;;;;;;5025479;28;20033;-71
2021/04/22 03:12:18;;;;;;;14.93;1.75;;;7.10;68.60;;;;;;5017356;28;20129;-71
2021/04/22 03:14:44;;;;;;;11.75;1.73;;;7.10;68.30;;;;;;5021988;28;20095;-71
2021/04/22 03:17:09;;;;;;;12.95;2.35;;;7.00;68.70;;;;;;5021631;28;20475;-71
2021/04/22 03:19:34;;;;;;;11.02;2.15;;;6.90;69.10;;;;;;5028699;28;20447;-71
2021/04/22 03:22:00;;;;;;;8.10;2.25;;;7.00;69.30;;;;;;5025461;28;20487;-71
2021/04/22 03:24:26;;;;;;;11.82;2.58;;;7.00;69.30;;;;;;5020620;28;20025;-71
2021/04/22 03:26:52;;;;;;;10.45;2.67;;;7.00;69.60;;;;;;5022485;28;20048;-71
2021/04/22 03:29:17;;;;;;;15.70;3.03;;;7.00;69.50;;;;;;5021710;28;20041;-71
2021/04/22 03:31:43;;;;;;;10.45;2.70;;;7.00;70.00;;;;;;5015554;28;20057;-71
2021/04/22 03:34:09;;;;;;;4.93;1.80;;;7.00;70.20;;;;;;5025526;28;20484;-70
2021/04/22 03:36:34;;;;;;;14.02;3.53;;;6.90;70.30;;;;;;5022978;28;20468;-70
2021/04/22 03:39:00;;;;;;;8.43;2.55;;;7.00;70.40;;;;;;5020274;28;20029;-71
2021/04/22 03:41:25;;;;;;;7.95;1.80;;;7.00;71.00;;;;;;5022307;28;20061;-71
2021/04/22 03:43:51;;;;;;;10.55;1.95;;;6.90;70.80;;;;;;5023876;28;20080;-71
2021/04/22 03:46:16;;;;;;;4.72;2.22;;;6.90;71.00;;;;;;5017087;28;20444;-71
2021/04/22 03:48:42;;;;;;;11.55;2.25;;;6.90;71.20;;;;;;5016108;28;20527;-70
2021/04/22 03:51:10;;;;;;;9.10;2.08;;;6.90;71.00;;;;;;5027148;28;20124;-71
2021/04/22 03:53:35;;;;;;;11.43;2.00;;;6.90;71.50;;;;;;5012240;28;20034;-71
2021/04/22 03:56:01;;;;;;;8.82;2.17;;;6.80;71.70;;;;;;5019914;28;20125;-71
2021/04/22 03:58:26;;;;;;;9.95;3.15;;;6.70;72.30;;;;;;5023540;28;20033;-71
2021/04/22 04:00:52;;;;;;;2.97;1.48;;;6.60;72.60;;;;;;5019571;28;20026;-70
2021/04/22 04:03:18;;;;;;;5.88;1.63;;;6.70;72.60;;;;;;5023159;28;20076;-70
2021/04/22 04:05:44;;;;;;;7.85;2.58;;;6.80;72.70;;;;;;5025106;28;20113;-71
2021/04/22 04:08:09;;;;;;;14.65;2.45;;;6.70;72.50;;;;;;5023456;28;20108;-71
2021/04/22 04:10:35;;;;;;;9.15;2.50;;;6.80;72.50;;;;;;5018512;28;20034;-71
2021/04/22 04:13:00;;;;;;;21.52;2.30;;;6.70;72.50;;;;;;5024463;28;20537;-71
2021/04/22 04:15:26;;;;;;;11.27;1.90;;;6.70;72.60;;;;;;5021127;28;20037;-70
2021/04/22 04:17:51;;;;;;;4.57;1.38;;;6.70;72.50;;;;;;5021595;28;20033;-70
2021/04/22 04:20:17;;;;;;;3.92;1.27;;;6.80;72.60;;;;;;5017067;28;20060;-71
2021/04/22 04:22:43;;;;;;;14.52;2.55;;;6.70;72.70;;;;;;5015579;28;20778;-71
2021/04/22 04:25:09;;;;;;;5.75;1.80;;;6.70;72.70;;;;;;5017613;28;20053;-71
2021/04/22 04:27:35;;;;;;;9.27;1.83;;;6.70;73.50;;;;;;5020183;28;20133;-70
2021/04/22 04:30:01;;;;;;;10.68;2.55;;;6.80;73.10;;;;;;5020851;28;20522;-72
2021/04/22 04:32:27;;;;;;;5.35;2.00;;;6.80;72.80;;;;;;5021590;28;20056;-71
2021/04/22 04:34:53;;;;;;;13.63;1.98;;;6.90;72.80;;;;;;5025104;28;20025;-71
2021/04/22 04:37:18;;;;;;;6.85;1.73;;;6.70;73.20;;;;;;5014883;28;20108;-71
2021/04/22 04:39:43;;;;;;;10.20;2.05;;;6.80;73.20;;;;;;5021836;28;20565;-71
2021/04/22 04:42:09;;;;;;;4.28;1.40;;;6.90;74.10;;;;;;5019529;28;20483;-71
2021/04/22 04:44:35;;;;;;;8.52;2.47;;;6.90;74.30;;;;;;5019436;28;20044;-71
2021/04/22 04:47:01;;;;;;;10.13;2.17;;;6.80;74.10;;;;;;5022922;28;20025;-71
2021/04/22 04:49:26;;;;;;;5.32;2.10;;;7.00;73.70;;;;;;5023384;28;20404;-71
2021/04/22 04:51:52;;;;;;;7.57;2.20;;;7.00;73.40;;;;;;5021193;28;20030;-71
2021/04/22 04:54:17;;;;;;;7.85;1.45;;;7.10;72.70;;;;;;5021421;28;20029;-70
2021/04/22 04:56:43;;;;;;;8.02;1.70;;;7.00;73.00;;;;;;5019450;28;20025;-71
2021/04/22 04:59:09;;;;;;;8.68;1.50;;;7.10;72.90;;;;;;5015487;28;20033;-71
2021/04/22 05:01:34;;;;;;;6.32;1.85;;;7.10;72.80;;;;;;5021393;28;20227;-71
2021/04/22 05:03:59;;;;;;;14.45;1.77;;;7.10;72.20;;;;;;5024458;28;20499;-71
2021/04/22 05:06:25;;;;;;;7.45;1.80;;;7.10;73.00;;;;;;5019032;28;20116;-71
2021/04/22 05:08:51;;;;;;;16.35;2.08;;;7.10;72.60;;;;;;5017560;28;20034;-71
2021/04/22 05:11:17;;;;;;;6.68;1.73;;;7.30;71.60;;;;;;5003105;28;20025;-71
2021/04/22 05:13:43;;;;;;;5.78;1.70;;;7.10;72.10;;;;;;5023855;28;20045;-71
2021/04/22 05:16:08;;;;;;;8.68;1.55;;;7.10;72.30;;;;;;5014103;28;20049;-71
2021/04/22 05:18:34;;;;;;;13.05;2.00;;;7.10;72.80;;;;;;5018441;28;20499;-71
2021/04/22 05:20:59;;;;;;;4.13;2.58;;;7.20;72.50;;;;;;5018745;28;20033;-71
2021/04/22 05:23:25;;;;;;;6.60;2.03;;;7.30;71.70;;;;;;5014696;28;20033;-71
2021/04/22 05:25:54;;;;;;;6.45;2.17;;;7.30;71.60;;;;;;5016553;28;20044;-71
2021/04/22 05:28:19;;;;;;;9.32;2.20;;;7.40;71.00;;;;;;5018712;28;20026;-71
2021/04/22 05:30:45;;;;;;;5.28;1.55;;;7.50;71.50;;;;;;5017197;28;20030;-70
2021/04/22 05:33:11;;;;;;;8.98;2.03;;;7.40;70.60;;;;;;5021930;28;20047;-71
2021/04/22 05:35:37;;;;;;;7.65;2.15;;;7.50;70.60;;;;;;5020585;28;20032;-71
2021/04/22 05:38:03;;;;;;;10.95;1.83;;;7.40;70.90;;;;;;5023615;28;20201;-74
2021/04/22 05:40:29;;;;;;;4.72;2.05;;;7.30;70.70;;;;;;5024550;28;20035;-71
2021/04/22 05:42:56;;;;;;;5.68;1.58;;;7.30;71.60;;;;;;5016707;28;20124;-70
2021/04/22 05:45:21;;;;;;;7.22;1.90;;;7.40;71.60;;;;;;5026209;28;20112;-70
2021/04/22 05:47:47;;;;;;;8.70;2.13;;;7.30;71.60;;;;;;5025444;28;20125;-70
2021/04/22 05:50:14;;;;;;;14.95;2.08;;;7.40;70.90;;;;;;5014253;28;20121;-72
2021/04/22 05:52:40;;;;;;;6.13;1.98;;;7.30;71.30;;;;;;5017422;28;20116;-72
2021/04/22 05:55:07;;;;;;;4.95;2.10;;;7.10;72.00;;;;;;5019797;28;20116;-72
2021/04/22 05:57:33;;;;;;;5.47;1.27;;;7.20;71.90;;;;;;5016177;28;20029;-70
2021/04/22 05:59:59;;;;;;;6.47;1.35;;;7.30;71.50;;;;;;5018235;28;20079;-72
2021/04/22 06:02:24;;;;;;;8.40;1.60;;;7.40;71.40;;;;;;5015989;28;20434;-73
2021/04/22 06:04:50;;;;;;;9.93;1.38;;;7.40;71.40;;;;;;5017412;28;20065;-71
2021/04/22 06:07:15;;;;;;;4.43;1.70;;;7.30;71.50;;;;;;5013558;28;20021;-71
2021/04/22 06:09:41;;;;;;;9.15;1.60;;;7.40;71.30;;;;;;5019057;28;20049;-73
2021/04/22 06:12:07;;;;;;;7.50;1.65;;;7.40;71.10;;;;;;5023152;28;20076;-72
2021/04/22 06:14:33;;;;;;;5.93;1.73;;;7.40;71.00;;;;;;5023053;28;20029;-72
2021/04/22 06:17:01;;;;;;;5.00;1.80;;;7.50;70.60;;;;;;5023802;28;20749;-72
2021/04/22 06:19:27;;;;;;;6.97;1.95;;;7.50;70.60;;;;;;5018690;28;20095;-72
2021/04/22 06:21:52;;;;;;;11.60;2.15;;;7.60;70.80;;;;;;5026568;28;20400;-72
2021/04/22 06:24:18;;;;;;;6.32;1.88;;;7.60;70.80;;;;;;5017573;28;20060;-73
2021/04/22 06:26:48;;;;;;;7.22;2.20;;;7.70;70.60;;;;;;5019820;28;20033;-73
2021/04/22 06:29:13;;;;;;;12.10;1.50;;;7.80;70.20;;;;;;5025330;28;20084;-72
2021/04/22 06:31:45;;;;;;;7.35;2.25;;;7.90;70.10;;;;;;5020137;28;20041;-71
2021/04/22 06:34:11;;;;;;;6.25;1.63;;;7.90;70.40;;;;;;5019470;28;20520;-73
2021/04/22 06:36:37;;;;;;;11.00;2.28;;;8.00;70.00;;;;;;5022562;28;20052;-71
2021/04/22 06:39:03;;;;;;;6.40;1.50;;;8.10;69.30;;;;;;5027629;28;21915;-75
2021/04/22 06:41:29;;;;;;;4.93;1.95;;;8.20;69.00;;;;;;5017831;28;20026;-74
2021/04/22 06:43:54;;;;;;;10.82;2.25;;;8.20;68.60;;;;;;5022630;28;20038;-73
2021/04/22 06:46:20;;;;;;;10.88;1.60;;;8.20;69.60;;;;;;5017760;28;20104;-73
2021/04/22 06:48:46;;;;;;;9.82;2.30;;;8.00;69.30;;;;;;5021980;28;20056;-74
2021/04/22 06:51:11;;;;;;;15.63;2.67;;;8.00;69.90;;;;;;5021820;28;20063;-74
2021/04/22 06:53:37;;;;;;;11.07;1.55;;;8.10;70.00;;;;;;5025543;28;20025;-73
2021/04/22 06:56:02;;;;;;;9.63;2.28;;;8.10;69.50;;;;;;5029362;28;20395;-73
2021/04/22 06:58:28;;;;;;;8.90;2.38;;;8.10;69.50;;;;;;5016417;28;20103;-73
2021/04/22 07:00:53;;;;;;;7.07;1.65;;;8.10;69.40;;;;;;5022720;28;20113;-73
2021/04/22 07:03:20;;;;;;;8.68;1.88;;;8.00;70.10;;;;;;5017955;28;20045;-73
2021/04/22 07:05:53;;;;;;;3.85;1.73;;;8.20;70.10;;;;;;5022488;28;20033;-73
2021/04/22 07:08:18;;;;;;;8.88;2.15;;;8.30;69.70;;;;;;5019495;28;20018;-72
2021/04/22 07:10:44;;;;;;;6.03;1.40;;;8.40;69.50;;;;;;5024380;28;20087;-72
2021/04/22 07:13:10;;;;;;;9.43;2.40;;;8.40;68.60;;;;;;5021080;28;20026;-73
2021/04/22 07:15:37;;;;;;;7.53;1.83;;;8.40;68.90;;;;;;5023968;28;20502;-71
2021/04/22 07:18:08;;;;;;;7.28;2.45;;;8.30;69.10;;;;;;5019379;28;20038;-70
2021/04/22 07:20:34;;;;;;;3.92;1.73;;;8.40;69.60;;;;;;5020741;28;20029;-71
2021/04/22 07:23:00;;;;;;;9.02;2.33;;;8.60;68.60;;;;;;5018327;28;20073;-71
2021/04/22 07:25:32;;;;;;;4.57;1.83;;;8.60;68.90;;;;;;5024244;28;20033;-71
2021/04/22 07:27:58;;;;;;;11.25;1.70;;;8.70;68.70;;;;;;5016398;28;20652;-70
2021/04/22 07:30:24;;;;;;;7.68;1.77;;;8.60;68.40;;;;;;5018707;28;20523;-70
2021/04/22 07:32:50;;;;;;;7.28;1.77;;;8.70;68.30;;;;;;5023996;28;20048;-71
2021/04/22 07:35:18;;;;;;;6.32;1.95;;;8.90;68.40;;;;;;5025766;28;20029;-71
2021/04/22 07:37:43;;;;;;;4.95;1.80;;;8.90;68.50;;;;;;5022486;28;20079;-70
2021/04/22 07:40:12;;;;;;;7.88;1.90;;;9.00;67.40;;;;;;5019922;28;20415;-71
2021/04/22 07:42:38;;;;;;;11.40;2.75;;;9.10;67.40;;;;;;5023485;28;20029;-71
2021/04/22 07:45:07;;;;;;;11.07;1.33;;;9.00;66.80;;;;;;5019429;28;20037;-72
2021/04/22 07:47:33;;;;;;;5.63;1.33;;;8.80;67.10;;;;;;5020583;28;20025;-69
2021/04/22 07:49:59;;;;;;;3.92;1.42;;;8.90;67.80;;;;;;5025506;28;20045;-69
2021/04/22 07:52:25;;;;;;;6.88;1.58;;;9.00;68.10;;;;;;5016019;28;20392;-70
2021/04/22 07:54:50;;;;;;;6.55;1.40;;;9.20;67.80;;;;;;5021887;28;20095;-70
2021/04/22 07:57:16;;;;;;;9.13;1.83;;;9.40;71.40;;;;;;5019637;28;20029;-70
2021/04/22 07:59:41;;;;;;;8.45;2.00;;;9.30;66.70;;;;;;5017378;28;20430;-71
2021/04/22 08:02:08;;;;;;;4.28;1.70;;;9.20;66.50;;;;;;5016645;28;20038;-71
2021/04/22 08:04:35;;;;;;;8.23;1.63;;;9.30;66.80;;;;;;5019700;28;20022;-71
2021/04/22 08:07:01;;;;;;;6.05;1.15;;;9.40;66.30;;;;;;5019035;28;20022;-71
2021/04/22 08:09:27;;;;;;;7.53;1.48;;;9.60;65.60;;;;;;5021031;28;20028;-71
2021/04/22 08:11:53;;;;;;;8.20;1.83;;;9.50;65.60;;;;;;5009960;28;20087;-73
2021/04/22 08:14:19;;;;;;;5.38;1.33;;;9.50;64.50;;;;;;5019470;28;20033;-73
2021/04/22 08:16:44;;;;;;;4.78;1.30;;;9.40;65.40;;;;;;5019545;28;20539;-72
2021/04/22 08:19:22;;;;;;;3.35;1.30;;;9.50;64.30;;;;;;5018263;28;20029;-72
2021/04/22 08:21:47;;;;;;;4.68;1.40;;;9.50;64.00;;;;;;5023387;28;20025;-72
2021/04/22 08:24:13;;;;;;;3.63;1.10;;;9.60;65.40;;;;;;5022802;28;20151;-73
2021/04/22 08:26:38;;;;;;;7.35;1.80;;;9.70;64.80;;;;;;5021504;28;20025;-73
2021/04/22 08:29:05;;;;;;;6.78;1.73;;;9.80;64.00;;;;;;5018097;28;20029;-72
2021/04/22 08:31:31;;;;;;;21.52;2.75;;;9.80;64.20;;;;;;5023642;28;20028;-71
2021/04/22 08:34:03;;;;;;;6.70;1.40;;;9.90;64.40;;;;;;5018057;28;20033;-71
2021/04/22 08:36:29;;;;;;;;;;;10.00;64.50;;;;;;5017986;28;20182;-70
2021/04/22 08:38:54;;;;;;;10.80;2.08;;;9.90;63.50;;;;;;5012967;28;19913;-71
2021/04/22 08:41:20;;;;;;;8.30;1.67;;;9.90;62.50;;;;;;5020915;28;20036;-71
2021/04/22 08:43:47;;;;;;;6.68;1.60;;;9.80;63.40;;;;;;5017871;28;20033;-71
2021/04/22 08:46:13;;;;;;;11.35;1.38;;;9.80;63.70;;;;;;5028911;28;20483;-71
2021/04/22 08:48:42;;;;;;;5.57;2.05;;;9.80;62.80;;;;;;5026806;28;20476;-70
2021/04/22 08:51:08;;;;;;;5.35;1.48;;;9.90;63.10;;;;;;5014153;28;20107;-71
2021/04/22 08:53:36;;;;;;;11.05;1.67;;;10.10;62.40;;;;;;5022111;28;20068;-71
2021/04/22 08:56:02;;;;;;;7.35;1.20;;;10.40;63.60;;;;;;5013826;28;20094;-71
2021/04/22 08:58:29;;;;;;;10.25;1.85;;;10.70;61.20;;;;;;5016083;28;20034;-70
2021/04/22 09:01:01;;;;;;;6.32;1.55;;;10.60;60.60;;;;;;5020121;28;20610;-70
2021/04/22 09:03:26;;;;;;;3.67;1.33;;;10.70;59.30;;;;;;5012761;28;20096;-70
2021/04/22 09:05:52;;;;;;;2.50;1.30;;;10.60;60.20;;;;;;5013222;28;20084;-71
2021/04/22 09:08:20;;;;;;;7.95;1.60;;;10.70;60.30;;;;;;5022906;28;20029;-71
2021/04/22 09:10:46;;;;;;;6.88;1.50;;;10.80;60.00;;;;;;5008999;28;20038;-71
2021/04/22 09:13:15;;;;;;;6.78;1.33;;;10.70;59.60;;;;;;5015874;28;20034;-71
2021/04/22 09:15:42;;;;;;;3.67;1.35;;;10.50;59.90;;;;;;5022070;28;20036;-71
2021/04/22 09:18:14;;;;;;;7.90;1.45;;;10.60;59.80;;;;;;5022839;28;20396;-71
2021/04/22 09:20:49;;;;;;;7.63;1.83;;;10.70;59.50;;;;;;5027784;28;20553;-70
2021/04/22 09:23:24;;;;;;;6.55;1.35;;;11.10;61.70;;;;;;5016897;28;20714;-70
2021/04/22 09:26:06;;;;;;;3.60;1.27;;;11.30;57.30;;;;;;5010003;28;20072;-71
2021/04/22 09:28:43;;;;;;;4.55;1.42;;;11.00;55.80;;;;;;5008529;28;20022;-71
2021/04/22 09:31:22;;;;;;;3.90;0.90;;;10.80;56.80;;;;;;5023727;28;20074;-69
2021/04/22 09:34:18;;;;;;;9.23;1.17;;;11.10;56.70;;;;;;5010069;28;20034;-69
2021/04/22 09:36:53;;;;;;;5.32;1.55;;;11.10;57.40;;;;;;5012632;28;20038;-69
2021/04/22 09:39:25;;;;;;;6.35;1.00;;;11.00;58.20;;;;;;5008545;28;20528;-69
2021/04/22 09:41:51;;;;;;;;;;;11.30;58.00;;;;;;5017646;28;20082;-69
2021/04/22 09:44:21;;;;;;;4.55;1.20;;;11.60;56.50;;;;;;5028000;28;19966;-69
2021/04/22 09:46:48;;;;;;;10.40;1.70;;;11.80;54.80;;;;;;5023306;28;20026;-69
2021/04/22 09:49:19;;;;;;;5.70;1.45;;;12.00;54.60;;;;;;5022442;28;20168;-69
2021/04/22 09:51:47;;;;;;;3.95;1.48;;;11.80;54.00;;;;;;5024351;28;20030;-69
2021/04/22 09:54:16;;;;;;;6.78;1.75;;;11.70;54.30;;;;;;5019117;28;20033;-68
2021/04/22 09:56:53;;;;;;;6.45;1.10;;;11.70;55.40;;;;;;5028572;28;20107;-69
2021/04/22 09:59:21;;;;;;;4.40;0.93;;;11.80;55.40;;;;;;5022103;28;20033;-69
2021/04/22 10:02:04;;;;;;;2.63;0.80;;;11.80;55.40;;;;;;5031781;28;20029;-69
2021/04/22 10:04:35;;;;;;;4.65;1.58;;;11.80;54.90;;;;;;5030253;28;20049;-69
2021/04/22 10:07:02;;;;;;;5.03;1.08;;;11.80;54.30;;;;;;5025754;28;20558;-69
2021/04/22 10:09:35;;;;;;;5.07;1.00;;;11.80;54.50;;;;;;5018578;28;20746;-69
2021/04/22 10:12:01;;;;;;;3.95;0.80;;;11.90;51.30;;;;;;5018604;28;20041;-69
2021/04/22 10:14:30;;;;;;;4.72;1.33;;;11.90;52.20;;;;;;5013123;28;20041;-70
2021/04/22 10:16:56;;;;;;;2.92;0.82;;;12.20;53.00;;;;;;5020750;28;20393;-69
2021/04/22 10:19:22;;;;;;;7.78;1.10;;;12.20;53.30;;;;;;5013454;28;20075;-69
2021/04/22 10:21:47;;;;;;;8.48;0.90;;;12.20;52.30;;;;;;5031358;28;20029;-69
2021/04/22 10:24:14;;;;;;;2.22;0.85;;;12.20;51.80;;;;;;5015295;28;20472;-71
2021/04/22 10:26:40;;;;;;;7.00;1.20;;;12.20;51.50;;;;;;5022363;28;20076;-68
2021/04/22 10:29:07;;;;;;;5.75;1.15;;;12.00;51.90;;;;;;5029653;28;20021;-69
2021/04/22 10:31:33;;;;;;;4.20;1.05;;;12.20;53.80;;;;;;5012508;28;20028;-69
2021/04/22 10:34:00;;;;;;;4.40;0.90;;;12.50;52.30;;;;;;5014073;28;20037;-69
2021/04/22 10:36:26;;;;;;;6.35;1.13;;;12.50;51.70;;;;;;5023133;28;20038;-69
2021/04/22 10:38:52;;;;;;;6.00;1.17;;;12.40;51.70;;;;;;5021573;28;20029;-69
2021/04/22 10:41:19;;;;;;;3.88;0.93;;;12.50;51.90;;;;;;5024999;28;20056;-69
2021/04/22 10:43:46;;;;;;;2.35;0.80;;;12.80;51.30;;;;;;5029738;28;20053;-69
2021/04/22 10:46:12;;;;;;;6.53;1.15;;;13.00;49.00;;;;;;5019414;28;20033;-69
2021/04/22 10:48:39;;;;;;;2.60;0.93;;;13.50;52.20;;;;;;5031007;28;20384;-68
2021/04/22 10:51:05;;;;;;;1.80;0.70;;;14.00;48.60;;;;;;5012244;28;20046;-70
2021/04/22 10:53:36;;;;;;;6.18;1.08;;;14.20;46.30;;;;;;5012995;28;20061;-69
2021/04/22 10:56:01;;;;;;;5.20;0.70;;;14.00;46.10;;;;;;5015153;28;20029;-69
2021/04/22 10:58:30;;;;;;;5.95;0.93;;;13.70;47.00;;;;;;5020347;28;20099;-69
2021/04/22 11:00:59;;;;;;;5.25;1.05;;;13.80;49.60;;;;;;5024627;28;20470;-69
2021/04/22 11:03:26;;;;;;;4.22;0.93;;;14.10;49.00;;;;;;5011160;28;20029;-69
2021/04/22 11:06:04;;;;;;;4.65;1.00;;;14.30;48.10;;;;;;5016373;28;20026;-70
2021/04/22 11:08:35;;;;;;;1.92;0.65;;;14.60;45.40;;;;;;5011175;28;20117;-69
2021/04/22 11:11:01;;;;;;;;;;;14.40;43.90;;;;;;5023498;28;20025;-70
2021/04/22 11:13:32;;;;;;;3.85;0.90;;;14.30;44.80;;;;;;5026546;28;19917;-69
2021/04/22 11:16:04;;;;;;;3.63;0.80;;;14.60;45.20;;;;;;5019919;28;20535;-69
2021/04/22 11:18:45;;;;;;;11.23;0.77;;;14.60;43.70;;;;;;5030709;28;20033;-69
2021/04/22 11:21:31;;;;;;;6.20;1.38;;;14.00;44.00;;;;;;5014520;28;20044;-69
2021/04/22 11:24:01;;;;;;;3.38;0.88;;;13.80;45.50;;;;;;5012127;28;20033;-69
2021/04/22 11:26:30;;;;;;;7.28;1.35;;;13.70;45.60;;;;;;5024986;28;20034;-70
2021/04/22 11:29:07;;;;;;;1.55;0.65;;;13.80;45.00;;;;;;5017090;28;20030;-70
2021/04/22 11:31:44;;;;;;;5.75;1.02;;;13.80;46.60;;;;;;5011295;28;20026;-70
2021/04/22 11:34:10;;;;;;;5.45;0.80;;;14.00;44.40;;;;;;5020585;28;20042;-69
2021/04/22 11:36:47;;;;;;;5.40;1.10;;;14.10;43.40;;;;;;5022284;28;20030;-69
2021/04/22 11:39:13;;;;;;;5.90;1.30;;;14.00;44.30;;;;;;5029084;28;20087;-70
2021/04/22 11:41:38;;;;;;;4.80;1.00;;;14.10;46.20;;;;;;5030130;28;20512;-69
2021/04/22 11:44:05;;;;;;;4.32;1.10;;;14.90;45.50;;;;;;5012658;28;20069;-70
2021/04/22 11:46:45;;;;;;;1.95;0.65;;;16.00;43.20;;;;;;5010513;28;20050;-69
2021/04/22 11:49:31;;;;;;;5.30;1.00;;;16.40;42.20;;;;;;5017935;28;20044;-69
2021/04/22 11:51:59;;;;;;;2.58;0.63;;;16.00;43.00;;;;;;5024509;28;20034;-69
2021/04/22 11:54:29;;;;;;;9.18;1.33;;;15.30;42.30;;;;;;4999591;28;20083;-69
2021/04/22 11:57:01;;;;;;;12.57;2.15;;;14.70;43.10;;;;;;5023855;28;20108;-69
2021/04/22 11:59:28;;;;;;;3.60;1.00;;;14.20;43.40;;;;;;5018852;28;20064;-69
2021/04/22 12:02:00;;;;;;;4.22;1.23;;;14.00;45.40;;;;;;5015276;28;20030;-70
2021/04/22 12:04:44;;;;;;;2.20;0.98;;;13.50;46.00;;;;;;5019384;28;20029;-69
2021/04/22 12:07:13;;;;;;;2.58;1.15;;;13.30;47.00;;;;;;5021385;28;20022;-70
2021/04/22 12:09:41;;;;;;;3.67;1.30;;;13.20;48.00;;;;;;5023139;28;20056;-70
2021/04/22 12:12:14;;;;;;;3.42;0.95;;;13.40;48.60;;;;;;5026453;28;20503;-70
2021/04/22 12:14:41;;;;;;;4.75;1.05;;;14.40;47.10;;;;;;5019240;28;20061;-70
2021/04/22 12:17:18;;;;;;;2.00;1.00;;;14.80;45.10;;;;;;5019264;28;20026;-70
2021/04/22 12:19:43;;;;;;;5.13;1.23;;;15.10;45.10;;;;;;5022738;28;20048;-70
2021/04/22 12:22:09;;;;;;;2.78;0.98;;;16.10;42.00;;;;;;5020758;28;20037;-70
2021/04/22 12:24:34;;;;;;;2.92;1.25;;;15.20;43.40;;;;;;5022567;28;20473;-69
2021/04/22 12:27:00;;;;;;;2.53;1.00;;;14.60;44.30;;;;;;5018362;28;20028;-70
2021/04/22 12:29:25;;;;;;;6.75;1.13;;;13.90;46.30;;;;;;5019788;28;20112;-70
2021/04/22 12:31:58;;;;;;;14.38;2.33;;;13.40;46.80;;;;;;5010306;28;20036;-69
2021/04/22 12:34:32;;;;;;;4.10;1.08;;;13.10;48.10;;;;;;5017637;28;20164;-69
2021/04/22 12:37:06;;;;;;;5.40;1.08;;;13.20;48.50;;;;;;5012025;28;20850;-69
2021/04/22 12:39:34;;;;;;;3.72;1.10;;;13.30;48.50;;;;;;5026777;28;20104;-69
2021/04/22 12:42:31;;;;;;;3.13;1.05;;;13.60;50.20;;;;;;5016967;28;20034;-70
2021/04/22 12:45:05;;;;;;;7.15;1.80;;;14.40;48.00;;;;;;4997096;28;20050;-70
2021/04/22 12:47:51;;;;;;;6.75;1.33;;;14.80;45.90;;;;;;5016043;28;20029;-70
2021/04/22 12:50:34;;;;;;;4.93;1.33;;;14.50;45.10;;;;;;5014552;28;20095;-71
2021/04/22 12:53:06;;;;;;;4.22;0.85;;;14.00;45.50;;;;;;5021780;28;20571;-69
2021/04/22 12:55:34;;;;;;;3.80;1.05;;;13.50;45.70;;;;;;5026489;28;20037;-68
2021/04/22 12:58:01;;;;;;;5.88;1.63;;;13.30;46.60;;;;;;5017631;28;20029;-69
2021/04/22 13:00:45;;;;;;;2.70;1.08;;;13.20;46.60;;;;;;5013420;28;20488;-70
2021/04/22 13:03:16;;;;;;;2.05;0.82;;;13.20;46.50;;;;;;5022496;28;20029;-68
2021/04/22 13:05:47;;;;;;;;;;;13.10;47.80;;;;;;5017558;28;20524;-69
2021/04/22 13:08:16;;;;;;;6.43;1.60;;;13.00;48.60;;;;;;5025610;28;19917;-69
2021/04/22 13:10:44;;;;;;;8.38;1.70;;;12.90;48.00;;;;;;5020864;28;20031;-72
2021/04/22 13:13:11;;;;;;;5.88;2.28;;;12.70;48.50;;;;;;5018575;28;20425;-70